createdAt,value
2022-12-05T00:00:22.208Z,7.60
2022-12-05T00:01:22.218Z,8.30
2022-12-05T00:02:22.220Z,8.30
2022-12-05T00:03:22.178Z,7.80
2022-12-05T00:04:22.242Z,8.00
2022-12-05T00:05:22.150Z,8.50
2022-12-05T00:06:22.172Z,9.20
2022-12-05T00:07:22.128Z,9.70
2022-12-05T00:08:22.119Z,8.40
2022-12-05T00:09:22.110Z,7.70
2022-12-05T00:10:22.099Z,9.30
2022-12-05T00:11:22.120Z,8.10
2022-12-05T00:12:22.089Z,9.10
2022-12-05T00:13:22.069Z,8.50
2022-12-05T00:14:22.049Z,8.60
2022-12-05T00:15:22.045Z,8.30
2022-12-05T00:16:22.096Z,8.20
2022-12-05T00:17:22.044Z,8.90
2022-12-05T00:18:22.010Z,8.80
2022-12-05T00:19:22.009Z,7.70
2022-12-05T00:20:21.992Z,8.00
2022-12-05T00:21:21.989Z,8.00
2022-12-05T00:22:21.991Z,8.20
2022-12-05T00:23:22.081Z,9.10
2022-12-05T00:24:21.950Z,8.40
2022-12-05T00:25:21.950Z,7.70
2022-12-05T00:26:21.957Z,8.30
2022-12-05T00:27:21.938Z,8.50
2022-12-05T00:28:21.899Z,7.90
2022-12-05T00:29:21.935Z,8.10
2022-12-05T00:30:21.882Z,8.10
2022-12-05T00:31:21.925Z,8.10
2022-12-05T00:32:21.948Z,8.20
2022-12-05T00:33:21.860Z,7.80
2022-12-05T00:34:21.841Z,7.90
2022-12-05T00:35:21.850Z,8.00
2022-12-05T00:36:21.819Z,8.40
2022-12-05T00:37:21.833Z,8.50
2022-12-05T00:38:21.791Z,8.30
2022-12-05T00:39:21.786Z,8.00
2022-12-05T00:40:21.778Z,9.10
2022-12-05T00:41:21.768Z,8.60
2022-12-05T00:42:21.779Z,8.80
2022-12-05T00:43:21.769Z,8.90
2022-12-05T00:44:21.729Z,8.70
2022-12-05T00:45:21.730Z,7.60
2022-12-05T00:46:21.761Z,8.40
2022-12-05T00:47:21.728Z,9.00
2022-12-05T00:48:21.687Z,8.10
2022-12-05T00:49:21.679Z,7.80
2022-12-05T00:50:21.670Z,8.50
2022-12-05T00:51:21.660Z,8.20
2022-12-05T00:52:21.646Z,7.70
2022-12-05T00:53:21.667Z,8.10
2022-12-05T00:54:21.628Z,8.50
2022-12-05T00:55:21.617Z,8.20
2022-12-05T00:56:21.608Z,8.40
2022-12-05T00:57:21.598Z,7.70
2022-12-05T00:58:21.581Z,8.20
2022-12-05T00:59:21.588Z,8.20
2022-12-05T01:00:21.567Z,7.50
2022-12-05T01:01:21.603Z,8.20
2022-12-05T01:02:21.566Z,8.70
2022-12-05T01:03:21.677Z,7.80
2022-12-05T01:04:21.538Z,7.60
2022-12-05T01:05:21.511Z,7.90
2022-12-05T01:06:21.499Z,8.00
2022-12-05T01:07:21.509Z,8.10
2022-12-05T01:08:21.474Z,8.40
2022-12-05T01:09:21.488Z,9.20
2022-12-05T01:10:21.450Z,8.70
2022-12-05T01:11:21.449Z,7.30
2022-12-05T01:12:21.440Z,8.40
2022-12-05T01:13:21.432Z,8.30
2022-12-05T01:14:21.440Z,7.40
2022-12-05T01:15:21.399Z,7.30
2022-12-05T01:16:21.440Z,7.80
2022-12-05T01:17:21.380Z,7.90
2022-12-05T01:18:21.366Z,7.80
2022-12-05T01:19:21.368Z,7.80
2022-12-05T01:20:21.367Z,7.80
2022-12-05T01:21:21.340Z,7.90
2022-12-05T01:22:21.319Z,8.00
2022-12-05T01:23:21.309Z,7.90
2022-12-05T01:24:21.319Z,8.50
2022-12-05T01:25:21.301Z,8.20
2022-12-05T01:26:21.298Z,7.90
2022-12-05T01:27:21.269Z,8.50
2022-12-05T01:28:21.316Z,8.60
2022-12-05T01:29:21.332Z,8.20
2022-12-05T01:30:21.258Z,7.80
2022-12-05T01:31:21.254Z,8.10
2022-12-05T01:32:21.234Z,7.50
2022-12-05T01:33:21.209Z,7.30
2022-12-05T01:34:21.190Z,8.00
2022-12-05T01:35:21.200Z,7.20
2022-12-05T01:36:21.198Z,8.00
2022-12-05T01:37:21.160Z,7.90
2022-12-05T01:38:21.151Z,8.10
2022-12-05T01:39:21.150Z,6.90
2022-12-05T01:40:21.129Z,8.60
2022-12-05T01:41:21.148Z,8.20
2022-12-05T01:42:26.063Z,7.90
2022-12-05T01:43:22.107Z,7.70
2022-12-05T01:44:21.089Z,7.70
2022-12-05T01:45:21.078Z,7.80
2022-12-05T01:46:21.122Z,8.10
2022-12-05T01:47:21.052Z,7.40
2022-12-05T01:48:21.048Z,8.20
2022-12-05T01:49:21.040Z,8.00
2022-12-05T01:50:21.020Z,8.00
2022-12-05T01:51:21.039Z,7.60
2022-12-05T01:52:20.998Z,8.20
2022-12-05T01:53:21.001Z,8.40
2022-12-05T01:54:20.987Z,7.40
2022-12-05T01:55:20.980Z,7.70
2022-12-05T01:56:20.978Z,8.50
2022-12-05T01:57:20.952Z,8.00
2022-12-05T01:58:20.938Z,8.10
2022-12-05T01:59:20.930Z,8.00
2022-12-05T02:00:20.919Z,7.80
2022-12-05T02:01:20.992Z,7.90
2022-12-05T02:02:20.995Z,7.60
2022-12-05T02:03:20.889Z,8.00
2022-12-05T02:04:20.877Z,8.50
2022-12-05T02:05:20.869Z,8.30
2022-12-05T02:06:20.849Z,8.10
2022-12-05T02:07:20.860Z,8.00
2022-12-05T02:08:20.861Z,7.60
2022-12-05T02:09:20.821Z,7.50
2022-12-05T02:10:20.812Z,8.40
2022-12-05T02:11:20.809Z,8.40
2022-12-05T02:12:20.811Z,8.40
2022-12-05T02:13:20.792Z,7.50
2022-12-05T02:14:20.892Z,8.20
2022-12-05T02:15:20.760Z,7.90
2022-12-05T02:16:20.809Z,7.80
2022-12-05T02:17:20.740Z,7.70
2022-12-05T02:18:20.748Z,7.70
2022-12-05T02:19:20.709Z,7.80
2022-12-05T02:20:20.699Z,7.70
2022-12-05T02:21:20.690Z,8.10
2022-12-05T02:22:20.679Z,7.90
2022-12-05T02:23:20.698Z,7.60
2022-12-05T02:24:20.658Z,8.50
2022-12-05T02:25:20.650Z,7.50
2022-12-05T02:26:20.630Z,7.80
2022-12-05T02:27:20.620Z,7.80
2022-12-05T02:28:20.611Z,7.60
2022-12-05T02:29:20.640Z,7.20
2022-12-05T02:30:20.588Z,8.10
2022-12-05T02:31:20.619Z,7.70
2022-12-05T02:32:20.570Z,8.00
2022-12-05T02:33:20.559Z,7.20
2022-12-05T02:34:20.552Z,8.40
2022-12-05T02:35:20.562Z,7.60
2022-12-05T02:36:20.534Z,7.70
2022-12-05T02:37:20.523Z,8.40
2022-12-05T02:38:20.510Z,8.00
2022-12-05T02:39:20.510Z,7.20
2022-12-05T02:40:20.507Z,7.20
2022-12-05T02:41:20.480Z,8.10
2022-12-05T02:42:20.461Z,8.20
2022-12-05T02:43:20.458Z,7.70
2022-12-05T02:44:20.463Z,8.70
2022-12-05T02:45:20.436Z,7.70
2022-12-05T02:46:20.498Z,7.90
2022-12-05T02:47:20.440Z,8.10
2022-12-05T02:48:20.399Z,7.50
2022-12-05T02:49:20.398Z,7.40
2022-12-05T02:50:20.381Z,6.70
2022-12-05T02:51:20.367Z,9.00
2022-12-05T02:52:20.359Z,7.60
2022-12-05T02:53:20.368Z,7.30
2022-12-05T02:54:20.358Z,7.30
2022-12-05T02:55:20.327Z,6.90
2022-12-05T02:56:20.320Z,7.20
2022-12-05T02:57:20.308Z,8.50
2022-12-05T02:58:20.288Z,7.10
2022-12-05T02:59:23.500Z,7.90
2022-12-05T03:00:20.289Z,8.10
2022-12-05T03:01:20.356Z,7.00
2022-12-05T03:02:20.250Z,6.90
2022-12-05T03:03:20.265Z,7.50
2022-12-05T03:04:20.338Z,8.00
2022-12-05T03:05:20.239Z,7.50
2022-12-05T03:06:20.208Z,7.90
2022-12-05T03:07:20.198Z,7.50
2022-12-05T03:08:20.188Z,8.80
2022-12-05T03:09:20.178Z,8.20
2022-12-05T03:10:20.187Z,7.60
2022-12-05T03:11:20.150Z,7.80
2022-12-05T03:12:20.141Z,7.90
2022-12-05T03:13:20.130Z,7.50
2022-12-05T03:14:20.120Z,8.00
2022-12-05T03:15:20.109Z,7.50
2022-12-05T03:16:20.165Z,8.20
2022-12-05T03:17:20.088Z,7.90
2022-12-05T03:18:20.079Z,7.20
2022-12-05T03:19:20.072Z,6.60
2022-12-05T03:20:20.087Z,8.00
2022-12-05T03:21:20.044Z,7.90
2022-12-05T03:22:20.049Z,7.20
2022-12-05T03:23:20.032Z,7.90
2022-12-05T03:24:20.017Z,7.70
2022-12-05T03:25:20.035Z,7.20
2022-12-05T03:26:20.002Z,8.00
2022-12-05T03:27:19.998Z,7.80
2022-12-05T03:28:19.970Z,7.20
2022-12-05T03:29:19.959Z,7.50
2022-12-05T03:30:19.970Z,7.70
2022-12-05T03:31:19.997Z,7.80
2022-12-05T03:32:19.930Z,7.60
2022-12-05T03:33:19.940Z,7.20
2022-12-05T03:34:19.907Z,7.60
2022-12-05T03:35:19.890Z,8.00
2022-12-05T03:36:19.880Z,8.00
2022-12-05T03:37:19.871Z,7.00
2022-12-05T03:38:19.890Z,7.70
2022-12-05T03:39:19.848Z,8.30
2022-12-05T03:40:19.847Z,7.90
2022-12-05T03:41:19.829Z,7.70
2022-12-05T03:42:19.846Z,6.90
2022-12-05T03:43:19.810Z,7.70
2022-12-05T03:44:19.803Z,8.50
2022-12-05T03:45:19.787Z,7.10
2022-12-05T03:46:19.859Z,8.20
2022-12-05T03:47:19.788Z,7.20
2022-12-05T03:48:19.760Z,7.30
2022-12-05T03:49:19.737Z,7.20
2022-12-05T03:50:19.768Z,7.00
2022-12-05T03:51:19.729Z,7.10
2022-12-05T03:52:19.742Z,8.10
2022-12-05T03:53:20.845Z,8.50
2022-12-05T03:54:19.689Z,7.50
2022-12-05T03:55:19.679Z,8.00
2022-12-05T03:56:19.668Z,8.30
2022-12-05T03:57:19.659Z,8.20
2022-12-05T03:58:19.678Z,7.10
2022-12-05T03:59:19.643Z,6.70
2022-12-05T04:00:19.631Z,8.00
2022-12-05T04:01:19.666Z,7.30
2022-12-05T04:02:19.601Z,7.50
2022-12-05T04:03:19.639Z,7.30
2022-12-05T04:04:19.609Z,7.90
2022-12-05T04:05:19.571Z,7.10
2022-12-05T04:06:19.561Z,7.30
2022-12-05T04:07:19.549Z,7.10
2022-12-05T04:08:19.609Z,8.20
2022-12-05T04:09:19.558Z,6.60
2022-12-05T04:10:19.529Z,6.80
2022-12-05T04:11:19.508Z,7.40
2022-12-05T04:12:19.530Z,7.40
2022-12-05T04:13:19.488Z,7.40
2022-12-05T04:14:19.500Z,7.50
2022-12-05T04:15:19.470Z,7.20
2022-12-05T04:16:19.543Z,7.80
2022-12-05T04:17:19.442Z,6.90
2022-12-05T04:18:19.437Z,7.30
2022-12-05T04:19:19.450Z,6.70
2022-12-05T04:20:19.410Z,7.90
2022-12-05T04:21:19.398Z,6.80
2022-12-05T04:22:19.390Z,7.00
2022-12-05T04:23:19.379Z,6.80
2022-12-05T04:24:19.389Z,7.20
2022-12-05T04:25:19.360Z,7.20
2022-12-05T04:26:19.348Z,6.80
2022-12-05T04:27:19.338Z,6.90
2022-12-05T04:28:21.713Z,7.60
2022-12-05T04:29:19.358Z,6.60
2022-12-05T04:30:19.308Z,6.50
2022-12-05T04:31:19.384Z,6.80
2022-12-05T04:32:19.288Z,6.50
2022-12-05T04:33:19.269Z,6.60
2022-12-05T04:34:19.282Z,7.20
2022-12-05T04:35:19.281Z,7.20
2022-12-05T04:36:19.247Z,6.80
2022-12-05T04:37:19.229Z,7.20
2022-12-05T04:38:19.220Z,7.30
2022-12-05T04:39:19.209Z,6.90
2022-12-05T04:40:19.219Z,7.10
2022-12-05T04:41:19.195Z,6.40
2022-12-05T04:42:19.178Z,6.00
2022-12-05T04:43:19.159Z,7.10
2022-12-05T04:44:19.158Z,6.70
2022-12-05T04:45:19.158Z,6.90
2022-12-05T04:46:19.216Z,6.50
2022-12-05T04:47:19.119Z,6.80
2022-12-05T04:48:19.108Z,8.10
2022-12-05T04:49:19.098Z,6.90
2022-12-05T04:50:19.109Z,6.90
2022-12-05T04:51:19.103Z,7.40
2022-12-05T04:52:19.068Z,6.70
2022-12-05T04:53:19.056Z,6.90
2022-12-05T04:54:19.040Z,6.40
2022-12-05T04:55:19.029Z,6.30
2022-12-05T04:56:19.049Z,6.30
2022-12-05T04:57:19.015Z,6.70
2022-12-05T04:58:19.027Z,7.00
2022-12-05T04:59:19.000Z,7.20
2022-12-05T05:00:18.985Z,6.90
2022-12-05T05:01:19.026Z,6.40
2022-12-05T05:02:18.967Z,6.20
2022-12-05T05:03:19.010Z,6.50
2022-12-05T05:04:18.942Z,6.40
2022-12-05T05:05:18.928Z,5.70
2022-12-05T05:06:18.938Z,6.80
2022-12-05T05:07:18.936Z,7.10
2022-12-05T05:08:18.988Z,6.60
2022-12-05T05:09:18.976Z,6.40
2022-12-05T05:10:18.878Z,6.50
2022-12-05T05:11:18.872Z,6.00
2022-12-05T05:12:19.465Z,6.30
2022-12-05T05:13:18.847Z,7.10
2022-12-05T05:14:18.840Z,6.30
2022-12-05T05:15:18.821Z,6.70
2022-12-05T05:16:18.868Z,6.60
2022-12-05T05:17:18.892Z,6.70
2022-12-05T05:18:18.792Z,6.90
2022-12-05T05:19:18.787Z,6.30
2022-12-05T05:20:20.085Z,6.50
2022-12-05T05:21:18.758Z,6.80
2022-12-05T05:22:18.768Z,7.00
2022-12-05T05:23:18.738Z,6.20
2022-12-05T05:24:18.720Z,7.10
2022-12-05T05:25:18.718Z,7.50
2022-12-05T05:26:18.698Z,7.20
2022-12-05T05:27:18.697Z,6.90
2022-12-05T05:28:18.711Z,7.40
2022-12-05T05:29:18.676Z,6.50
2022-12-05T05:30:18.658Z,7.10
2022-12-05T05:31:18.695Z,7.30
2022-12-05T05:32:18.639Z,7.40
2022-12-05T05:33:18.629Z,7.10
2022-12-05T05:34:18.637Z,7.70
2022-12-05T05:35:18.609Z,7.90
2022-12-05T05:36:18.604Z,8.00
2022-12-05T05:37:18.589Z,7.10
2022-12-05T05:38:18.591Z,6.20
2022-12-05T05:39:18.559Z,6.90
2022-12-05T05:40:18.560Z,7.40
2022-12-05T05:41:18.547Z,7.20
2022-12-05T05:42:18.539Z,7.00
2022-12-05T05:43:18.551Z,7.00
2022-12-05T05:44:18.538Z,6.60
2022-12-05T05:45:18.519Z,7.00
2022-12-05T05:46:18.601Z,7.10
2022-12-05T05:47:18.507Z,7.40
2022-12-05T05:48:18.484Z,7.50
2022-12-05T05:49:18.509Z,7.20
2022-12-05T05:50:21.783Z,8.30
2022-12-05T05:51:18.430Z,7.80
2022-12-05T05:52:18.420Z,7.60
2022-12-05T05:53:18.472Z,7.90
2022-12-05T05:54:18.400Z,7.10
2022-12-05T05:55:18.502Z,8.40
2022-12-05T05:56:21.435Z,8.00
2022-12-05T05:57:20.560Z,7.90
2022-12-05T05:58:18.363Z,8.40
2022-12-05T05:59:18.359Z,7.60
2022-12-05T06:00:18.330Z,8.00
2022-12-05T06:01:18.350Z,6.90
2022-12-05T06:02:18.407Z,7.90
2022-12-05T06:03:18.434Z,8.40
2022-12-05T06:04:18.336Z,7.50
2022-12-05T06:05:18.312Z,7.70
2022-12-05T06:06:18.270Z,6.60
2022-12-05T06:07:18.271Z,6.60
2022-12-05T06:08:18.340Z,7.10
2022-12-05T06:09:18.287Z,6.80
2022-12-05T06:10:18.261Z,7.80
2022-12-05T06:11:24.978Z,6.70
2022-12-05T06:12:19.210Z,7.10
2022-12-05T06:13:18.199Z,6.50
2022-12-05T06:14:18.200Z,6.90
2022-12-05T06:15:18.190Z,6.40
2022-12-05T06:16:18.239Z,6.30
2022-12-05T06:17:18.220Z,6.10
2022-12-05T06:18:18.143Z,6.30
2022-12-05T06:19:18.148Z,7.20
2022-12-05T06:20:18.124Z,5.70
2022-12-05T06:21:18.116Z,5.70
2022-12-05T06:22:18.129Z,6.00
2022-12-05T06:23:18.089Z,6.00
2022-12-05T06:24:18.080Z,5.70
2022-12-05T06:25:18.093Z,5.90
2022-12-05T06:26:18.062Z,5.80
2022-12-05T06:27:18.050Z,5.80
2022-12-05T06:28:18.089Z,5.40
2022-12-05T06:29:22.802Z,5.80
2022-12-05T06:30:19.010Z,6.00
2022-12-05T06:31:18.081Z,5.30
2022-12-05T06:32:17.999Z,5.50
2022-12-05T06:33:18.130Z,5.30
2022-12-05T06:34:17.989Z,5.90
2022-12-05T06:35:17.962Z,5.50
2022-12-05T06:36:17.948Z,5.80
2022-12-05T06:37:18.020Z,4.90
2022-12-05T06:38:17.929Z,5.90
2022-12-05T06:39:17.940Z,6.40
2022-12-05T06:40:17.930Z,6.30
2022-12-05T06:41:17.901Z,5.70
2022-12-05T06:42:17.888Z,5.90
2022-12-05T06:43:17.878Z,6.10
2022-12-05T06:44:17.859Z,5.60
2022-12-05T06:45:17.879Z,4.80
2022-12-05T06:46:17.903Z,5.80
2022-12-05T06:47:17.831Z,5.80
2022-12-05T06:48:17.821Z,6.00
2022-12-05T06:49:17.840Z,5.10
2022-12-05T06:50:17.798Z,5.40
2022-12-05T06:51:17.795Z,5.80
2022-12-05T06:52:17.781Z,5.30
2022-12-05T06:53:17.771Z,5.80
2022-12-05T06:54:17.774Z,5.60
2022-12-05T06:55:17.751Z,5.40
2022-12-05T06:56:17.730Z,5.80
2022-12-05T06:57:17.727Z,5.20
2022-12-05T06:58:17.710Z,5.70
2022-12-05T06:59:17.728Z,5.20
2022-12-05T07:00:17.697Z,4.70
2022-12-05T07:01:17.731Z,5.20
2022-12-05T07:02:17.763Z,5.50
2022-12-05T07:03:17.669Z,5.60
2022-12-05T07:04:17.671Z,5.20
2022-12-05T07:05:17.641Z,5.60
2022-12-05T07:06:17.632Z,5.70
2022-12-05T07:07:17.611Z,5.10
2022-12-05T07:08:17.653Z,5.50
2022-12-05T07:09:17.598Z,5.10
2022-12-05T07:10:17.598Z,5.40
2022-12-05T07:11:17.581Z,5.60
2022-12-05T07:12:17.576Z,5.20
2022-12-05T07:13:17.559Z,6.40
2022-12-05T07:14:38.821Z,5.30
2022-12-05T07:15:18.561Z,5.30
2022-12-05T07:16:17.598Z,5.50
2022-12-05T07:17:17.516Z,5.70
2022-12-05T07:18:17.497Z,5.60
2022-12-05T07:19:17.489Z,5.20
2022-12-05T07:20:17.471Z,5.60
2022-12-05T07:21:17.491Z,6.00
2022-12-05T07:22:17.454Z,5.30
2022-12-05T07:23:17.466Z,6.20
2022-12-05T07:24:17.429Z,5.90
2022-12-05T07:25:17.472Z,5.60
2022-12-05T07:26:17.434Z,5.90
2022-12-05T07:27:21.857Z,5.80
2022-12-05T07:28:18.391Z,5.30
2022-12-05T07:29:17.381Z,5.60
2022-12-05T07:30:17.369Z,5.10
2022-12-05T07:31:17.441Z,5.30
2022-12-05T07:32:17.443Z,6.00
2022-12-05T07:33:17.339Z,5.10
2022-12-05T07:34:17.332Z,5.90
2022-12-05T07:35:17.310Z,5.70
2022-12-05T07:36:17.311Z,5.50
2022-12-05T07:37:17.317Z,6.10
2022-12-05T07:38:17.280Z,6.10
2022-12-05T07:39:17.271Z,6.40
2022-12-05T07:40:17.261Z,6.50
2022-12-05T07:41:17.250Z,5.70
2022-12-05T07:42:17.242Z,6.10
2022-12-05T07:43:17.249Z,5.80
2022-12-05T07:44:17.230Z,5.20
2022-12-05T07:45:17.210Z,5.20
2022-12-05T07:46:17.259Z,6.10
2022-12-05T07:47:17.235Z,5.70
2022-12-05T07:48:18.900Z,5.80
2022-12-05T07:49:17.167Z,6.60
2022-12-05T07:50:17.151Z,5.70
2022-12-05T07:51:17.141Z,5.80
2022-12-05T07:52:17.156Z,5.80
2022-12-05T07:53:17.122Z,5.10
2022-12-05T07:54:17.119Z,6.60
2022-12-05T07:55:17.101Z,5.40
2022-12-05T07:56:17.194Z,5.90
2022-12-05T07:57:17.080Z,5.20
2022-12-05T07:58:17.091Z,6.10
2022-12-05T07:59:17.069Z,6.00
2022-12-05T08:00:17.048Z,5.70
2022-12-05T08:01:17.130Z,6.70
2022-12-05T08:02:17.070Z,6.40
2022-12-05T08:03:17.031Z,6.10
2022-12-05T08:04:17.010Z,5.60
2022-12-05T08:05:17.000Z,5.90
2022-12-05T08:06:16.994Z,5.80
2022-12-05T08:07:16.970Z,5.90
2022-12-05T08:08:16.996Z,6.20
2022-12-05T08:09:16.970Z,5.70
2022-12-05T08:10:16.960Z,6.20
2022-12-05T08:11:16.931Z,6.10
2022-12-05T08:12:16.918Z,5.40
2022-12-05T08:13:16.907Z,6.30
2022-12-05T08:14:16.922Z,5.00
2022-12-05T08:15:16.890Z,5.30
2022-12-05T08:16:16.901Z,6.10
2022-12-05T08:17:16.859Z,5.70
2022-12-05T08:18:16.851Z,5.70
2022-12-05T08:19:16.865Z,6.00
2022-12-05T08:20:16.829Z,5.50
2022-12-05T08:21:16.817Z,6.30
2022-12-05T08:22:16.813Z,5.70
2022-12-05T08:23:16.807Z,5.30
2022-12-05T08:24:16.808Z,5.60
2022-12-05T08:25:16.822Z,5.40
2022-12-05T08:26:16.784Z,5.90
2022-12-05T08:27:16.754Z,5.50
2022-12-05T08:28:16.750Z,5.50
2022-12-05T08:29:16.730Z,6.30
2022-12-05T08:30:16.722Z,6.40
2022-12-05T08:31:16.820Z,6.70
2022-12-05T08:32:16.709Z,6.30
2022-12-05T08:33:16.689Z,6.30
2022-12-05T08:34:16.683Z,5.60
2022-12-05T08:35:16.692Z,6.20
2022-12-05T08:36:16.661Z,5.80
2022-12-05T08:37:16.640Z,5.30
2022-12-05T08:38:16.639Z,5.90
2022-12-05T08:39:16.647Z,5.00
2022-12-05T08:40:16.622Z,5.90
2022-12-05T08:41:16.620Z,5.80
2022-12-05T08:42:16.590Z,6.00
2022-12-05T08:43:16.581Z,6.00
2022-12-05T08:44:16.590Z,5.70
2022-12-05T08:45:16.589Z,5.60
2022-12-05T08:46:16.621Z,5.70
2022-12-05T08:47:16.559Z,5.30
2022-12-05T08:48:16.530Z,5.30
2022-12-05T08:49:16.538Z,5.30
2022-12-05T08:50:16.542Z,5.60
2022-12-05T08:51:16.504Z,5.60
2022-12-05T08:52:16.491Z,5.20
2022-12-05T08:53:16.528Z,5.80
2022-12-05T08:54:16.461Z,5.70
2022-12-05T08:55:16.481Z,5.10
2022-12-05T08:56:16.444Z,5.40
2022-12-05T08:57:16.447Z,5.00
2022-12-05T08:58:16.440Z,5.40
2022-12-05T08:59:16.409Z,5.00
2022-12-05T09:00:16.401Z,4.80
2022-12-05T09:01:16.440Z,5.10
2022-12-05T09:02:16.411Z,5.40
2022-12-05T09:03:16.370Z,5.40
2022-12-05T09:04:16.351Z,5.30
2022-12-05T09:05:27.515Z,6.20
2022-12-05T09:06:17.360Z,5.50
2022-12-05T09:07:16.342Z,6.00
2022-12-05T09:08:16.408Z,6.00
2022-12-05T09:09:16.303Z,5.10
2022-12-05T09:10:16.294Z,5.30
2022-12-05T09:11:16.282Z,6.30
2022-12-05T09:12:16.271Z,5.60
2022-12-05T09:13:16.280Z,5.00
2022-12-05T09:14:16.247Z,5.50
2022-12-05T09:15:16.241Z,5.10
2022-12-05T09:16:16.304Z,5.50
2022-12-05T09:17:16.239Z,5.20
2022-12-05T09:18:16.214Z,5.70
2022-12-05T09:19:16.191Z,4.60
2022-12-05T09:20:16.190Z,5.10
2022-12-05T09:21:16.169Z,4.80
2022-12-05T09:22:16.162Z,4.60
2022-12-05T09:23:16.366Z,4.40
2022-12-05T09:24:16.139Z,5.50
2022-12-05T09:25:16.138Z,4.80
2022-12-05T09:26:16.119Z,4.90
2022-12-05T09:27:16.111Z,4.40
2022-12-05T09:28:16.121Z,5.00
2022-12-05T09:29:17.559Z,4.50
2022-12-05T09:30:16.079Z,5.20
2022-12-05T09:31:16.089Z,4.60
2022-12-05T09:32:16.060Z,4.40
2022-12-05T09:33:16.040Z,4.50
2022-12-05T09:34:16.061Z,4.60
2022-12-05T09:35:16.033Z,4.40
2022-12-05T09:36:16.010Z,4.20
2022-12-05T09:37:38.162Z,4.30
2022-12-05T09:38:17.024Z,4.70
2022-12-05T09:39:15.982Z,4.00
2022-12-05T09:40:15.994Z,5.00
2022-12-05T09:41:15.963Z,4.20
2022-12-05T09:42:15.953Z,4.70
2022-12-05T09:43:15.934Z,4.20
2022-12-05T09:44:15.933Z,4.10
2022-12-05T09:45:15.943Z,4.40
2022-12-05T09:46:15.954Z,5.00
2022-12-05T09:47:15.890Z,4.70
2022-12-05T09:48:15.890Z,4.50
2022-12-05T09:49:15.871Z,4.80
2022-12-05T09:50:15.882Z,4.60
2022-12-05T09:51:15.850Z,4.80
2022-12-05T09:52:15.839Z,5.20
2022-12-05T09:53:15.828Z,5.00
2022-12-05T09:54:15.833Z,4.70
2022-12-05T09:55:15.840Z,4.30
2022-12-05T09:56:15.808Z,4.60
2022-12-05T09:57:15.782Z,4.60
2022-12-05T09:58:15.780Z,4.60
2022-12-05T09:59:15.761Z,4.40
2022-12-05T10:00:15.764Z,5.50
2022-12-05T10:01:15.804Z,4.90
2022-12-05T10:02:15.815Z,4.50
2022-12-05T10:03:15.721Z,5.10
2022-12-05T10:04:15.788Z,4.90
2022-12-05T10:05:15.802Z,4.70
2022-12-05T10:06:15.694Z,4.80
2022-12-05T10:07:15.679Z,5.20
2022-12-05T10:08:15.727Z,4.30
2022-12-05T10:09:15.659Z,4.20
2022-12-05T10:10:19.992Z,4.70
2022-12-05T10:11:16.630Z,4.20
2022-12-05T10:12:15.620Z,4.80
2022-12-05T10:13:15.620Z,5.50
2022-12-05T10:14:15.601Z,4.60
2022-12-05T10:15:15.601Z,5.50
2022-12-05T10:16:15.633Z,4.70
2022-12-05T10:17:15.573Z,4.80
2022-12-05T10:18:15.569Z,5.20
2022-12-05T10:19:15.549Z,5.20
2022-12-05T10:20:15.581Z,4.30
2022-12-05T10:21:15.530Z,4.80
2022-12-05T10:22:20.293Z,5.10
2022-12-05T10:23:34.664Z,5.00
2022-12-05T10:24:16.497Z,5.00
2022-12-05T10:25:15.490Z,4.50
2022-12-05T10:26:15.502Z,4.30
2022-12-05T10:27:15.460Z,4.90
2022-12-05T10:28:15.451Z,4.80
2022-12-05T10:29:15.442Z,5.30
2022-12-05T10:30:15.450Z,4.80
2022-12-05T10:31:15.500Z,4.70
2022-12-05T10:32:15.410Z,4.60
2022-12-05T10:33:15.401Z,4.00
2022-12-05T10:34:15.390Z,4.50
2022-12-05T10:35:15.380Z,4.90
2022-12-05T10:36:15.375Z,4.20
2022-12-05T10:37:15.379Z,3.70
2022-12-05T10:38:15.351Z,3.90
2022-12-05T10:39:15.331Z,5.10
2022-12-05T10:40:15.334Z,4.60
2022-12-05T10:41:15.309Z,3.50
2022-12-05T10:42:15.301Z,4.00
2022-12-05T10:43:15.313Z,3.60
2022-12-05T10:44:15.281Z,3.80
2022-12-05T10:45:15.282Z,3.70
2022-12-05T10:46:17.257Z,4.10
2022-12-05T10:47:15.295Z,3.80
2022-12-05T10:48:15.258Z,3.40
2022-12-05T10:49:15.229Z,3.50
2022-12-05T10:50:15.229Z,3.70
2022-12-05T10:51:15.202Z,3.30
2022-12-05T10:52:15.200Z,3.80
2022-12-05T10:53:15.211Z,3.50
2022-12-05T10:54:15.170Z,3.40
2022-12-05T10:55:15.171Z,4.00
2022-12-05T10:56:30.154Z,3.80
2022-12-05T10:57:16.142Z,3.50
2022-12-05T10:58:17.566Z,3.60
2022-12-05T10:59:15.125Z,4.20
2022-12-05T11:00:15.114Z,3.30
2022-12-05T11:01:15.101Z,3.40
2022-12-05T11:02:15.133Z,4.00
2022-12-05T11:03:15.072Z,3.80
2022-12-05T11:04:15.088Z,4.00
2022-12-05T11:05:15.092Z,4.00
2022-12-05T11:06:15.042Z,3.70
2022-12-05T11:07:15.031Z,3.60
2022-12-05T11:08:15.053Z,3.70
2022-12-05T11:09:15.030Z,3.90
2022-12-05T11:10:15.002Z,3.50
2022-12-05T11:11:14.981Z,3.90
2022-12-05T11:12:14.983Z,4.30
2022-12-05T11:13:14.962Z,4.10
2022-12-05T11:14:14.978Z,4.40
2022-12-05T11:15:14.958Z,4.70
2022-12-05T11:16:15.000Z,6.20
2022-12-05T11:17:14.923Z,5.70
2022-12-05T11:18:14.911Z,9.90
2022-12-05T11:19:14.921Z,10.70
2022-12-05T11:20:14.893Z,11.10
2022-12-05T11:21:14.883Z,5.00
2022-12-05T11:22:14.921Z,5.50
2022-12-05T11:23:14.859Z,4.40
2022-12-05T11:24:14.873Z,3.80
2022-12-05T11:25:14.883Z,4.40
2022-12-05T11:26:14.822Z,4.10
2022-12-05T11:27:14.814Z,6.00
2022-12-05T11:28:14.808Z,4.00
2022-12-05T11:29:14.792Z,4.40
2022-12-05T11:30:14.789Z,4.90
2022-12-05T11:31:14.827Z,4.40
2022-12-05T11:32:14.763Z,4.70
2022-12-05T11:33:14.792Z,4.10
2022-12-05T11:34:14.742Z,5.60
2022-12-05T11:35:14.759Z,4.30
2022-12-05T11:36:14.722Z,5.50
2022-12-05T11:37:14.729Z,4.50
2022-12-05T11:38:14.701Z,4.30
2022-12-05T11:39:14.692Z,4.60
2022-12-05T11:40:14.701Z,4.40
2022-12-05T11:41:14.671Z,3.60
2022-12-05T11:42:14.660Z,3.50
2022-12-05T11:43:14.650Z,4.40
2022-12-05T11:44:14.642Z,4.00
2022-12-05T11:45:14.632Z,4.20
2022-12-05T11:46:14.671Z,3.20
2022-12-05T11:47:14.646Z,4.50
2022-12-05T11:48:14.590Z,3.70
2022-12-05T11:49:14.582Z,3.60
2022-12-05T11:50:14.599Z,4.50
2022-12-05T11:51:14.564Z,4.00
2022-12-05T11:52:14.552Z,5.00
2022-12-05T11:53:14.540Z,6.10
2022-12-05T11:54:14.521Z,4.50
2022-12-05T11:55:14.551Z,5.40
2022-12-05T11:56:14.503Z,5.60
2022-12-05T11:57:14.501Z,5.90
2022-12-05T11:58:14.481Z,5.70
2022-12-05T11:59:14.469Z,5.80
2022-12-05T12:00:14.481Z,4.90
2022-12-05T12:01:14.449Z,5.20
2022-12-05T12:02:14.531Z,4.00
2022-12-05T12:03:14.503Z,4.50
2022-12-05T12:04:14.419Z,4.20
2022-12-05T12:05:14.429Z,4.50
2022-12-05T12:06:14.422Z,3.90
2022-12-05T12:07:14.410Z,3.70
2022-12-05T12:08:14.409Z,4.30
2022-12-05T12:09:14.370Z,3.90
2022-12-05T12:10:14.357Z,3.40
2022-12-05T12:11:14.353Z,4.10
2022-12-05T12:12:14.330Z,4.00
2022-12-05T12:13:14.342Z,3.90
2022-12-05T12:14:14.322Z,4.20
2022-12-05T12:15:14.311Z,3.90
2022-12-05T12:16:14.320Z,4.40
2022-12-05T12:17:14.362Z,3.90
2022-12-05T12:18:14.291Z,4.60
2022-12-05T12:19:14.281Z,4.30
2022-12-05T12:20:14.252Z,4.20
2022-12-05T12:21:14.230Z,4.30
2022-12-05T12:22:14.230Z,4.40
2022-12-05T12:23:14.221Z,4.00
2022-12-05T12:24:14.229Z,3.70
2022-12-05T12:25:14.218Z,3.30
2022-12-05T12:26:14.186Z,3.80
2022-12-05T12:27:14.182Z,3.70
2022-12-05T12:28:14.163Z,3.70
2022-12-05T12:29:14.159Z,3.90
2022-12-05T12:30:14.161Z,3.60
2022-12-05T12:31:14.173Z,3.50
2022-12-05T12:32:14.209Z,3.70
2022-12-05T12:33:14.112Z,4.40
2022-12-05T12:34:14.101Z,3.70
2022-12-05T12:35:14.129Z,4.00
2022-12-05T12:36:14.079Z,3.30
2022-12-05T12:37:14.077Z,4.10
2022-12-05T12:38:14.059Z,3.70
2022-12-05T12:39:14.048Z,4.30
2022-12-05T12:40:14.030Z,4.20
2022-12-05T12:41:14.050Z,4.30
2022-12-05T12:42:14.016Z,4.70
2022-12-05T12:43:30.953Z,3.90
2022-12-05T12:44:14.988Z,4.10
2022-12-05T12:45:13.990Z,4.40
2022-12-05T12:46:14.033Z,4.60
2022-12-05T12:47:13.970Z,4.40
2022-12-05T12:48:13.968Z,4.60
2022-12-05T12:49:13.941Z,4.90
2022-12-05T12:50:13.937Z,5.30
2022-12-05T12:51:13.919Z,4.90
2022-12-05T12:52:13.928Z,5.00
2022-12-05T12:53:13.899Z,5.10
2022-12-05T12:54:13.882Z,5.00
2022-12-05T12:55:14.142Z,4.60
2022-12-05T12:56:13.871Z,4.90
2022-12-05T12:57:17.034Z,5.50
2022-12-05T12:58:14.869Z,5.40
2022-12-05T12:59:13.841Z,5.40
2022-12-05T13:00:13.850Z,4.50
2022-12-05T13:01:13.879Z,5.20
2022-12-05T13:02:13.863Z,4.90
2022-12-05T13:03:13.805Z,5.30
2022-12-05T13:04:13.779Z,5.00
2022-12-05T13:05:13.779Z,5.50
2022-12-05T13:06:13.806Z,6.10
2022-12-05T13:07:13.750Z,5.60
2022-12-05T13:08:13.807Z,5.50
2022-12-05T13:09:13.737Z,6.00
2022-12-05T13:10:13.721Z,5.10
2022-12-05T13:11:13.708Z,5.50
2022-12-05T13:12:13.695Z,5.20
2022-12-05T13:13:13.710Z,5.80
2022-12-05T13:14:13.677Z,6.00
2022-12-05T13:15:13.669Z,5.30
2022-12-05T13:16:13.675Z,5.30
2022-12-05T13:17:13.639Z,5.50
2022-12-05T13:18:13.760Z,5.90